Time;durP1;ratioP1;P1;durP2;ratioP2;P2;SDS_P1;SDS_P2;PMS_P1;PMS_P2;Temp;Humidity;BMP_temperature;BMP_pressure;BME280_temperature;BME280_humidity;BME280_pressure;Samples;Min_cycle;Max_cycle;Signal;HPM_P1;HPM_P2
2023/04/17 00:01:50;;;;;;;;;;;;;;;16.25;59.67;100748.06;108120;1286;21966;-63
2023/04/17 00:04:17;;;;;;;;;;;;;;;16.24;60.00;100745.60;108141;1286;21965;-63
2023/04/17 00:06:43;;;;;;;;;;;;;;;16.25;60.12;100749.14;108137;1286;21976;-63
2023/04/17 00:09:11;;;;;;;;;;;;;;;16.25;60.33;100749.47;108120;1286;21968;-63
2023/04/17 00:11:37;;;;;;;;;;;;;;;16.25;60.25;100748.25;108260;1286;21970;-64
2023/04/17 00:14:02;;;;;;;;;;;;;;;16.23;59.90;100752.05;108130;1286;22010;-63
2023/04/17 00:16:28;;;;;;;;;;;;;;;16.20;59.95;100752.28;108203;1286;22004;-64
2023/04/17 00:18:54;;;;;;;;;;;;;;;16.18;59.80;100755.17;108174;1286;21967;-63
2023/04/17 00:21:20;;;;;;;;;;;;;;;16.13;59.42;100757.60;108156;1286;21968;-63
2023/04/17 00:23:45;;;;;;;;;;;;;;;16.08;59.28;100759.02;108132;1286;23532;-63
2023/04/17 00:26:11;;;;;;;;;;;;;;;16.01;58.96;100761.52;108111;1286;22740;-63
2023/04/17 00:28:37;;;;;;;;;;;;;;;15.95;58.92;100757.95;108141;1286;22010;-62
2023/04/17 00:31:03;;;;;;;;;;;;;;;15.91;59.02;100756.29;108130;1286;21973;-63
2023/04/17 00:33:33;;;;;;;;;;;;;;;15.89;59.09;100757.95;108281;1285;21978;-63
2023/04/17 00:35:58;;;;;;;;;;;;;;;15.87;59.07;100758.18;108177;1286;21964;-63
2023/04/17 00:38:24;;;;;;;;;;;;;;;15.85;59.07;100757.88;108117;1286;21967;-64
2023/04/17 00:40:50;;;;;;;;;;;;;;;15.82;58.96;100753.54;108149;1286;21972;-63
2023/04/17 00:43:16;;;;;;;;;;;;;;;15.78;59.12;100749.20;108153;1286;22008;-63
2023/04/17 00:45:41;;;;;;;;;;;;;;;15.80;59.53;100749.16;108127;1286;21974;-63
2023/04/17 00:48:10;;;;;;;;;;;;;;;15.84;59.71;100748.17;108125;1286;21970;-63
2023/04/17 00:50:35;;;;;;;;;;;;;;;15.87;59.84;100749.52;108150;1286;21975;-63
2023/04/17 00:53:02;;;;;;;;;;;;;;;15.90;59.81;100750.48;108237;1286;21983;-63
2023/04/17 00:55:27;;;;;;;;;;;;;;;15.93;59.50;100749.00;108198;1286;21994;-64
2023/04/17 00:57:54;;;;;;;;;;;;;;;15.94;59.50;100752.69;108116;1286;21980;-64
2023/04/17 01:00:19;;;;;;;;;;;;;;;15.94;59.20;100752.34;108179;1286;21974;-63
2023/04/17 01:02:45;;;;;;;;;;;;;;;15.91;58.99;100752.92;108120;1286;21968;-63
2023/04/17 01:05:11;;;;;;;;;;;;;;;15.90;59.14;100752.62;108095;1286;21961;-64
2023/04/17 01:07:37;;;;;;;;;;;;;;;15.89;59.21;100749.29;108109;1285;21971;-64
2023/04/17 01:10:03;;;;;;;;;;;;;;;15.87;59.27;100748.10;108113;1286;21978;-63
2023/04/17 01:12:30;;;;;;;;;;;;;;;15.84;59.06;100748.34;108166;1286;21968;-64
2023/04/17 01:14:56;;;;;;;;;;;;;;;15.81;59.13;100747.54;108097;1286;21968;-64
2023/04/17 01:17:22;;;;;;;;;;;;;;;15.78;58.98;100746.19;108147;1286;22039;-64
2023/04/17 01:19:48;;;;;;;;;;;;;;;15.74;59.01;100743.47;108104;1286;22014;-64
2023/04/17 01:22:15;;;;;;;;;;;;;;;15.73;59.22;100746.14;108115;1286;21976;-64
2023/04/17 01:24:41;;;;;;;;;;;;;;;15.72;59.05;100744.77;108134;1286;23686;-63
2023/04/17 01:27:06;;;;;;;;;;;;;;;15.69;58.79;100744.32;108143;1286;21964;-64
2023/04/17 01:29:32;;;;;;;;;;;;;;;15.64;58.69;100744.48;108113;1286;21975;-64
2023/04/17 01:31:58;;;;;;;;;;;;;;;15.59;58.81;100738.75;108081;1285;21970;-62
2023/04/17 01:34:23;;;;;;;;;;;;;;;15.58;58.80;100738.96;107391;1286;1003175;-63
2023/04/17 01:36:49;;;;;;;;;;;;;;;15.54;58.54;100735.91;108114;1286;21970;-64
2023/04/17 01:39:16;;;;;;;;;;;;;;;15.54;58.48;100738.71;108113;1286;21977;-63
2023/04/17 01:41:41;;;;;;;;;;;;;;;15.56;58.34;100735.66;108193;1286;21971;-63
2023/04/17 01:44:07;;;;;;;;;;;;;;;15.55;58.33;100734.09;108300;1286;21977;-63
2023/04/17 01:46:42;;;;;;;;;;;;;;;15.56;58.29;100733.89;108174;1286;21972;-64
2023/04/17 01:49:07;;;;;;;;;;;;;;;15.55;58.04;100731.41;108145;1286;23619;-63
2023/04/17 01:51:33;;;;;;;;;;;;;;;15.54;57.93;100735.71;108108;1286;21967;-63
2023/04/17 01:53:59;;;;;;;;;;;;;;;15.52;57.74;100733.45;108098;1284;21973;-64
2023/04/17 01:56:25;;;;;;;;;;;;;;;15.52;57.66;100736.13;108105;1286;22008;-64
2023/04/17 01:58:52;;;;;;;;;;;;;;;15.51;57.71;100735.43;108055;1286;21976;-63
2023/04/17 02:01:17;;;;;;;;;;;;;;;15.49;57.50;100736.55;108104;1286;21978;-62
2023/04/17 02:03:42;;;;;;;;;;;;;;;15.48;57.51;100739.77;108300;1283;21968;-63
2023/04/17 02:06:08;;;;;;;;;;;;;;;15.45;57.38;100738.77;108268;1286;21967;-63
2023/04/17 02:08:34;;;;;;;;;;;;;;;15.43;57.37;100738.83;108279;1286;21966;-63
2023/04/17 02:11:00;;;;;;;;;;;;;;;15.41;57.16;100740.14;108056;1286;21973;-63
2023/04/17 02:13:25;;;;;;;;;;;;;;;15.38;57.25;100742.86;108058;1286;22135;-64
2023/04/17 02:15:51;;;;;;;;;;;;;;;15.36;57.31;100740.78;108071;1286;24110;-64
2023/04/17 02:18:16;;;;;;;;;;;;;;;15.33;57.04;100742.27;108081;1286;21973;-63
2023/04/17 02:20:42;;;;;;;;;;;;;;;15.30;57.08;100744.30;108107;1286;22132;-64
2023/04/17 02:23:08;;;;;;;;;;;;;;;15.27;57.02;100748.98;108118;1286;23593;-63
2023/04/17 02:25:33;;;;;;;;;;;;;;;15.23;56.84;100744.31;108137;1286;23616;-62
2023/04/17 02:27:59;;;;;;;;;;;;;;;15.19;56.79;100746.89;108188;1282;21986;-64
2023/04/17 02:30:25;;;;;;;;;;;;;;;15.16;56.99;100746.06;108090;1286;22150;-64
2023/04/17 02:32:53;;;;;;;;;;;;;;;15.16;57.23;100748.91;108111;1287;22027;-64
2023/04/17 02:35:19;;;;;;;;;;;;;;;15.15;57.34;100745.57;108108;1286;21966;-64
2023/04/17 02:37:44;;;;;;;;;;;;;;;15.15;57.31;100745.94;108127;1287;21979;-63
2023/04/17 02:40:10;;;;;;;;;;;;;;;15.16;57.19;100751.57;108211;1286;21962;-64
2023/04/17 02:42:36;;;;;;;;;;;;;;;15.14;56.42;100753.91;108165;1286;21982;-63
2023/04/17 02:45:02;;;;;;;;;;;;;;;15.10;56.31;100755.77;108109;1287;23639;-64
2023/04/17 02:47:29;;;;;;;;;;;;;;;15.11;56.29;100756.45;108228;1286;22005;-63
2023/04/17 02:49:55;;;;;;;;;;;;;;;15.10;56.10;100756.46;108104;1286;22009;-64
2023/04/17 02:52:21;;;;;;;;;;;;;;;15.10;56.00;100758.40;108106;1286;21970;-65
2023/04/17 02:54:47;;;;;;;;;;;;;;;15.11;56.03;100761.23;108196;1286;21971;-64
2023/04/17 02:57:12;;;;;;;;;;;;;;;15.13;56.18;100765.08;108162;1286;22907;-63
2023/04/17 02:59:38;;;;;;;;;;;;;;;15.14;55.97;100763.98;108079;1286;21974;-63
2023/04/17 03:02:04;;;;;;;;;;;;;;;15.15;56.06;100765.19;108138;1286;22010;-64
2023/04/17 03:04:29;;;;;;;;;;;;;;;15.18;56.17;100764.95;108163;1286;21976;-63
2023/04/17 03:06:55;;;;;;;;;;;;;;;15.20;55.93;100765.61;108113;1286;21981;-63
2023/04/17 03:09:21;;;;;;;;;;;;;;;15.19;55.71;100767.73;108083;1286;21968;-64
2023/04/17 03:11:47;;;;;;;;;;;;;;;15.17;55.41;100768.67;108152;1286;21980;-64
2023/04/17 03:14:13;;;;;;;;;;;;;;;15.15;55.48;100772.96;108113;1287;22022;-63
2023/04/17 03:16:38;;;;;;;;;;;;;;;15.14;55.59;100779.35;108191;1283;21967;-63
2023/04/17 03:19:04;;;;;;;;;;;;;;;15.11;54.80;100782.79;108101;1286;21968;-63
2023/04/17 03:21:30;;;;;;;;;;;;;;;15.07;54.72;100787.11;108110;1287;22910;-64
2023/04/17 03:23:56;;;;;;;;;;;;;;;15.04;55.03;100794.96;108137;1286;21972;-62
2023/04/17 03:26:24;;;;;;;;;;;;;;;15.05;55.18;100798.84;108125;1286;22439;-62
2023/04/17 03:28:49;;;;;;;;;;;;;;;15.04;55.13;100801.15;108139;1286;23592;-63
2023/04/17 03:31:15;;;;;;;;;;;;;;;15.02;55.11;100801.38;108121;1286;21972;-62
2023/04/17 03:33:40;;;;;;;;;;;;;;;14.99;55.40;100807.10;108109;1286;21969;-63
2023/04/17 03:36:06;;;;;;;;;;;;;;;14.98;55.42;100806.42;108102;1277;22027;-63
2023/04/17 03:38:32;;;;;;;;;;;;;;;14.97;55.38;100811.39;108247;1286;21969;-63
2023/04/17 03:40:58;;;;;;;;;;;;;;;14.97;55.53;100814.92;108115;1286;21976;-63
2023/04/17 03:43:23;;;;;;;;;;;;;;;14.98;55.51;100819.69;108148;1285;23599;-62
2023/04/17 03:45:49;;;;;;;;;;;;;;;14.97;55.40;100815.63;108126;1285;21969;-63
2023/04/17 03:48:14;;;;;;;;;;;;;;;14.95;55.27;100817.98;108205;1286;21992;-63
2023/04/17 03:50:40;;;;;;;;;;;;;;;14.94;55.22;100817.82;108142;1286;22007;-63
2023/04/17 03:53:06;;;;;;;;;;;;;;;14.97;55.18;100820.23;108113;1286;22020;-63
2023/04/17 03:55:31;;;;;;;;;;;;;;;14.97;55.26;100820.40;108235;1286;21982;-63
2023/04/17 03:57:57;;;;;;;;;;;;;;;14.98;55.15;100817.56;108112;1286;21971;-63
2023/04/17 04:00:23;;;;;;;;;;;;;;;14.99;55.11;100826.20;108116;1285;23131;-64
2023/04/17 04:02:49;;;;;;;;;;;;;;;15.01;55.10;100833.90;108090;1286;21981;-63
2023/04/17 04:05:15;;;;;;;;;;;;;;;15.06;55.36;100839.10;108105;1286;21978;-62
2023/04/17 04:07:40;;;;;;;;;;;;;;;15.12;55.90;100841.98;108123;1286;22827;-61
2023/04/17 04:10:06;;;;;;;;;;;;;;;15.19;56.11;100842.17;108144;1286;21970;-62
2023/04/17 04:12:32;;;;;;;;;;;;;;;15.24;55.99;100838.84;108096;1286;21969;-63
2023/04/17 04:14:57;;;;;;;;;;;;;;;15.28;56.27;100840.35;108156;1286;22138;-61
2023/04/17 04:17:23;;;;;;;;;;;;;;;15.31;56.29;100842.55;108115;1286;21972;-62
2023/04/17 04:19:48;;;;;;;;;;;;;;;15.36;56.50;100846.88;108176;1286;21944;-62
2023/04/17 04:22:14;;;;;;;;;;;;;;;15.38;56.47;100848.06;108166;1286;23644;-62
2023/04/17 04:24:39;;;;;;;;;;;;;;;15.38;56.48;100847.88;108236;1286;21970;-62
2023/04/17 04:27:05;;;;;;;;;;;;;;;15.40;56.29;100847.32;108085;1286;22145;-61
2023/04/17 04:29:32;;;;;;;;;;;;;;;15.39;56.33;100845.20;108166;1283;21957;-61
2023/04/17 04:31:57;;;;;;;;;;;;;;;15.38;56.33;100841.35;108099;1283;22015;-62
2023/04/17 04:34:24;;;;;;;;;;;;;;;15.37;56.45;100838.73;108116;1286;21967;-60
2023/04/17 04:36:50;;;;;;;;;;;;;;;15.37;56.47;100835.88;108128;1286;21967;-62
2023/04/17 04:39:19;;;;;;;;;;;;;;;15.38;56.54;100834.28;107363;1286;1003230;-61
2023/04/17 04:41:50;;;;;;;;;;;;;;;15.39;56.64;100830.34;108153;1286;21962;-61
2023/04/17 04:44:16;;;;;;;;;;;;;;;15.42;56.60;100827.11;108082;1286;21979;-61
2023/04/17 04:46:42;;;;;;;;;;;;;;;15.43;56.52;100826.36;108095;1286;21962;-61
2023/04/17 04:49:07;;;;;;;;;;;;;;;15.45;56.60;100826.67;108128;1283;23843;-62
2023/04/17 04:51:33;;;;;;;;;;;;;;;15.48;56.61;100825.01;108179;1286;22732;-61
2023/04/17 04:53:59;;;;;;;;;;;;;;;15.50;56.53;100822.13;108049;1286;21987;-62
2023/04/17 04:56:25;;;;;;;;;;;;;;;15.54;56.59;100820.23;108084;1286;21968;-61
2023/04/17 04:58:51;;;;;;;;;;;;;;;15.60;56.64;100816.39;108065;1283;23631;-62
2023/04/17 05:01:16;;;;;;;;;;;;;;;15.64;56.31;100812.92;108215;1282;21966;-63
2023/04/17 05:03:43;;;;;;;;;;;;;;;15.66;56.13;100811.98;108126;1286;21976;-62
2023/04/17 05:06:10;;;;;;;;;;;;;;;15.70;56.30;100811.15;108118;1286;23791;-61
2023/04/17 05:08:35;;;;;;;;;;;;;;;15.75;56.17;100805.20;108111;1286;21964;-63
2023/04/17 05:11:01;;;;;;;;;;;;;;;15.79;55.95;100805.44;108070;1286;21965;-61
2023/04/17 05:13:29;;;;;;;;;;;;;;;15.82;55.74;100803.41;108185;1286;23702;-64
2023/04/17 05:15:55;;;;;;;;;;;;;;;15.85;55.64;100804.75;108105;1286;21970;-61
2023/04/17 05:18:20;;;;;;;;;;;;;;;15.88;55.57;100804.15;108202;1286;23713;-63
2023/04/17 05:20:46;;;;;;;;;;;;;;;15.91;55.66;100801.07;108095;1286;21970;-63
2023/04/17 05:23:12;;;;;;;;;;;;;;;15.95;55.63;100799.56;108123;1286;21970;-63
2023/04/17 05:25:38;;;;;;;;;;;;;;;15.98;55.70;100799.10;108117;1286;21979;-64
2023/04/17 05:28:04;;;;;;;;;;;;;;;16.03;55.59;100796.85;108109;1286;22008;-64
2023/04/17 05:30:30;;;;;;;;;;;;;;;16.08;55.48;100796.53;108135;1286;21979;-62
2023/04/17 05:32:55;;;;;;;;;;;;;;;16.14;55.27;100792.30;108114;1286;21979;-63
2023/04/17 05:35:21;;;;;;;;;;;;;;;16.18;55.08;100789.33;108123;1286;22155;-62
2023/04/17 05:37:46;;;;;;;;;;;;;;;16.24;54.81;100790.08;108223;1285;21965;-63
2023/04/17 05:40:12;;;;;;;;;;;;;;;16.30;54.69;100788.30;108119;1283;22338;-62
2023/04/17 05:42:38;;;;;;;;;;;;;;;16.36;54.46;100790.24;108069;1286;22720;-61
2023/04/17 05:45:03;;;;;;;;;;;;;;;16.43;54.22;100783.66;108129;1285;22949;-62
2023/04/17 05:47:29;;;;;;;;;;;;;;;16.49;53.95;100784.17;108259;1282;24310;-62
2023/04/17 05:49:57;;;;;;;;;;;;;;;16.55;53.78;100782.77;108242;1286;21981;-62
2023/04/17 05:52:23;;;;;;;;;;;;;;;16.61;53.74;100778.16;108259;1286;21972;-62
2023/04/17 05:54:49;;;;;;;;;;;;;;;16.67;53.41;100774.25;108169;1286;23619;-63
2023/04/17 05:57:15;;;;;;;;;;;;;;;16.71;53.07;100777.65;108117;1286;21979;-64
2023/04/17 05:59:42;;;;;;;;;;;;;;;16.75;52.88;100771.15;108100;1286;23642;-66
2023/04/17 06:02:08;;;;;;;;;;;;;;;16.78;52.61;100771.23;108185;1286;21965;-62
2023/04/17 06:04:34;;;;;;;;;;;;;;;16.82;52.68;100773.77;108141;1286;21979;-62
2023/04/17 06:07:01;;;;;;;;;;;;;;;16.86;52.40;100770.98;108098;1286;23602;-64
2023/04/17 06:09:27;;;;;;;;;;;;;;;16.90;52.32;100770.86;108079;1286;23696;-64
2023/04/17 06:11:53;;;;;;;;;;;;;;;16.90;52.05;100766.77;108035;1286;21967;-64
2023/04/17 06:14:18;;;;;;;;;;;;;;;16.90;51.99;100768.20;108033;1286;22136;-64
2023/04/17 06:16:44;;;;;;;;;;;;;;;16.87;51.91;100766.68;108171;1280;21967;-64
2023/04/17 06:19:09;;;;;;;;;;;;;;;16.88;51.95;100767.20;108227;1286;21976;-64
2023/04/17 06:21:35;;;;;;;;;;;;;;;16.88;51.85;100771.27;108134;1286;21977;-64
2023/04/17 06:24:01;;;;;;;;;;;;;;;16.88;51.72;100771.97;108101;1286;23789;-64
2023/04/17 06:26:26;;;;;;;;;;;;;;;16.89;51.84;100771.77;108047;1282;21974;-64
2023/04/17 06:28:52;;;;;;;;;;;;;;;16.91;51.61;100769.06;108040;1286;21966;-66
2023/04/17 06:31:20;;;;;;;;;;;;;;;16.91;51.48;100776.13;108088;1286;22433;-64
2023/04/17 06:33:48;;;;;;;;;;;;;;;16.93;51.87;100776.95;108099;1286;21969;-64
2023/04/17 06:36:14;;;;;;;;;;;;;;;16.99;51.58;100773.08;108212;1286;21967;-64
2023/04/17 06:38:39;;;;;;;;;;;;;;;17.06;51.76;100774.45;108196;1286;21970;-65
2023/04/17 06:41:05;;;;;;;;;;;;;;;17.14;51.49;100772.60;108167;1286;21978;-64
2023/04/17 06:43:31;;;;;;;;;;;;;;;17.24;51.71;100769.41;108043;1286;23644;-64
2023/04/17 06:45:57;;;;;;;;;;;;;;;17.35;51.60;100769.77;108089;1286;21976;-63
2023/04/17 06:48:22;;;;;;;;;;;;;;;17.45;51.45;100772.44;108058;1286;21980;-64
2023/04/17 06:50:48;;;;;;;;;;;;;;;17.53;51.19;100771.44;108110;1286;21970;-65
2023/04/17 06:53:13;;;;;;;;;;;;;;;17.60;51.01;100769.06;108077;1286;22422;-64
2023/04/17 06:55:39;;;;;;;;;;;;;;;17.65;50.91;100767.80;108214;1286;22019;-64
2023/04/17 06:58:06;;;;;;;;;;;;;;;17.73;51.03;100767.19;108109;1286;21965;-64
2023/04/17 07:00:35;;;;;;;;;;;;;;;17.79;51.10;100764.31;108302;1286;22010;-65
2023/04/17 07:03:01;;;;;;;;;;;;;;;17.83;50.45;100753.69;108126;1286;21969;-64
2023/04/17 07:05:26;;;;;;;;;;;;;;;17.83;50.44;100753.50;108048;1286;22024;-64
2023/04/17 07:07:53;;;;;;;;;;;;;;;17.85;50.26;100751.67;107304;1286;1003099;-62
2023/04/17 07:10:18;;;;;;;;;;;;;;;17.85;50.38;100741.73;108120;1286;21987;-63
2023/04/17 07:12:44;;;;;;;;;;;;;;;17.88;50.09;100740.02;108088;1286;21990;-63
2023/04/17 07:15:10;;;;;;;;;;;;;;;17.89;49.96;100736.96;108134;1286;21972;-62
2023/04/17 07:17:36;;;;;;;;;;;;;;;17.91;50.04;100736.52;108152;1286;22433;-63
2023/04/17 07:20:04;;;;;;;;;;;;;;;17.97;50.16;100739.00;108131;1286;21968;-62
2023/04/17 07:22:30;;;;;;;;;;;;;;;18.03;50.49;100736.48;108120;1286;21970;-61
2023/04/17 07:24:56;;;;;;;;;;;;;;;18.10;50.65;100737.12;108126;1286;23648;-61
2023/04/17 07:27:21;;;;;;;;;;;;;;;18.16;50.22;100740.44;108079;1286;21937;-62
2023/04/17 07:29:53;;;;;;;;;;;;;;;18.21;49.85;100742.04;108081;1286;21968;-60
2023/04/17 07:32:23;;;;;;;;;;;;;;;18.23;49.87;100739.44;108095;1286;21982;-61
2023/04/17 07:34:48;;;;;;;;;;;;;;;18.26;49.62;100739.52;108116;1286;21970;-63
2023/04/17 07:37:15;;;;;;;;;;;;;;;18.25;49.11;100738.12;108068;1286;21967;-64
2023/04/17 07:39:42;;;;;;;;;;;;;;;18.20;49.15;100741.15;108275;1286;22939;-64
2023/04/17 07:42:07;;;;;;;;;;;;;;;18.14;49.25;100739.98;108113;1280;21990;-64
2023/04/17 07:44:33;;;;;;;;;;;;;;;18.08;49.31;100738.98;108076;1286;22446;-64
2023/04/17 07:46:59;;;;;;;;;;;;;;;18.02;49.10;100734.73;108020;1286;21967;-64
2023/04/17 07:49:25;;;;;;;;;;;;;;;17.90;48.84;100732.33;108071;1286;22019;-64
2023/04/17 07:51:51;;;;;;;;;;;;;;;17.85;48.78;100732.13;108124;1286;22008;-64
2023/04/17 07:54:16;;;;;;;;;;;;;;;17.84;49.23;100724.73;108114;1286;22129;-64
2023/04/17 07:56:45;;;;;;;;;;;;;;;17.86;48.99;100717.73;108179;1286;22905;-63
2023/04/17 07:59:11;;;;;;;;;;;;;;;17.90;49.16;100714.55;108155;1286;22266;-65
2023/04/17 08:01:37;;;;;;;;;;;;;;;17.99;49.46;100712.65;108067;1286;22185;-64
2023/04/17 08:04:02;;;;;;;;;;;;;;;18.07;49.21;100708.48;108025;1283;21972;-64
2023/04/17 08:06:28;;;;;;;;;;;;;;;18.10;48.82;100708.91;108030;1286;21983;-64
2023/04/17 08:08:53;;;;;;;;;;;;;;;18.10;48.71;100705.84;108146;1286;21974;-65
2023/04/17 08:11:19;;;;;;;;;;;;;;;18.06;48.37;100701.39;108144;1285;21974;-64
2023/04/17 08:13:44;;;;;;;;;;;;;;;18.03;48.54;100700.98;108046;1285;22111;-64
2023/04/17 08:16:10;;;;;;;;;;;;;;;18.02;48.64;100701.17;108135;1286;22005;-63
2023/04/17 08:18:40;;;;;;;;;;;;;;;17.99;48.39;100695.95;108030;1286;22005;-64
2023/04/17 08:21:07;;;;;;;;;;;;;;;17.95;48.06;100698.39;108088;1286;21984;-64
2023/04/17 08:23:33;;;;;;;;;;;;;;;17.94;48.46;100698.09;108068;1286;23625;-64
2023/04/17 08:25:58;;;;;;;;;;;;;;;17.94;48.45;100695.42;108060;1285;22132;-64
2023/04/17 08:28:25;;;;;;;;;;;;;;;17.96;48.55;100700.13;108002;1285;21972;-64
2023/04/17 08:30:51;;;;;;;;;;;;;;;17.97;48.53;100701.86;108057;1286;22141;-64
2023/04/17 08:33:17;;;;;;;;;;;;;;;17.97;48.79;100700.80;108021;1286;21969;-64
2023/04/17 08:35:43;;;;;;;;;;;;;;;18.01;48.91;100705.48;108017;1286;21980;-64
2023/04/17 08:38:12;;;;;;;;;;;;;;;18.04;48.77;100705.02;108132;1286;23650;-64
2023/04/17 08:40:40;;;;;;;;;;;;;;;18.06;48.43;100701.58;108094;1286;22021;-64
2023/04/17 08:43:11;;;;;;;;;;;;;;;18.05;48.25;100700.38;108257;1286;21979;-64
2023/04/17 08:45:36;;;;;;;;;;;;;;;18.02;48.10;100697.29;108052;1286;21969;-64
2023/04/17 08:48:02;;;;;;;;;;;;;;;18.00;48.18;100698.25;106573;1286;1003037;-64
2023/04/17 08:50:28;;;;;;;;;;;;;;;17.97;48.00;100696.91;108087;1286;23645;-64
2023/04/17 08:52:54;;;;;;;;;;;;;;;17.94;48.04;100691.52;108055;1286;23062;-64
2023/04/17 08:55:23;;;;;;;;;;;;;;;17.91;48.04;100694.98;108235;1286;21958;-63
2023/04/17 08:57:55;;;;;;;;;;;;;;;17.89;47.92;100691.71;108241;1286;21976;-62
2023/04/17 09:00:24;;;;;;;;;;;;;;;17.87;48.15;100688.58;108151;1286;24314;-63
2023/04/17 09:02:51;;;;;;;;;;;;;;;17.88;48.00;100687.30;108086;1286;21967;-63
2023/04/17 09:05:20;;;;;;;;;;;;;;;17.90;48.03;100683.13;108041;1286;23055;-63
2023/04/17 09:07:47;;;;;;;;;;;;;;;17.91;47.88;100681.33;108240;1284;23696;-63
2023/04/17 09:10:12;;;;;;;;;;;;;;;17.92;48.00;100676.48;108264;1284;22131;-64
2023/04/17 09:12:40;;;;;;;;;;;;;;;17.95;48.04;100673.70;108094;1286;21970;-64
2023/04/17 09:15:15;;;;;;;;;;;;;;;18.00;47.96;100671.80;108103;1283;21978;-64
2023/04/17 09:17:41;;;;;;;;;;;;;;;18.05;48.12;100670.21;108032;1286;21968;-64
2023/04/17 09:20:07;;;;;;;;;;;;;;;18.11;48.08;100671.35;108015;1286;21972;-64
2023/04/17 09:22:34;;;;;;;;;;;;;;;18.20;48.16;100668.16;108187;1282;21984;-63
2023/04/17 09:25:00;;;;;;;;;;;;;;;18.33;48.19;100663.93;108251;1285;21970;-64
2023/04/17 09:27:26;;;;;;;;;;;;;;;18.48;48.14;100660.16;108215;1286;21969;-64
2023/04/17 09:29:56;;;;;;;;;;;;;;;18.63;48.28;100659.17;108157;1286;24076;-63
2023/04/17 09:32:24;;;;;;;;;;;;;;;18.84;48.32;100654.57;108171;1286;21969;-65
2023/04/17 09:34:50;;;;;;;;;;;;;;;19.08;48.08;100650.52;108268;1284;21967;-64
2023/04/17 09:37:16;;;;;;;;;;;;;;;19.35;48.27;100647.77;108248;1286;21968;-65
2023/04/17 09:39:57;;;;;;;;;;;;;;;19.63;48.39;100642.42;108299;1286;21979;-63
2023/04/17 09:42:23;;;;;;;;;;;;;;;19.90;47.87;100636.92;108282;1284;21977;-63
2023/04/17 09:44:49;;;;;;;;;;;;;;;20.10;47.59;100635.30;108091;1286;23831;-64
2023/04/17 09:47:16;;;;;;;;;;;;;;;20.26;47.03;100627.05;107948;1285;23696;-63
2023/04/17 09:49:44;;;;;;;;;;;;;;;20.39;46.62;100620.73;108165;1286;21965;-63
2023/04/17 09:52:10;;;;;;;;;;;;;;;20.50;46.70;100623.71;108021;1286;21967;-63
2023/04/17 09:54:36;;;;;;;;;;;;;;;20.61;46.27;100622.09;108164;1286;21980;-63
2023/04/17 09:57:03;;;;;;;;;;;;;;;20.72;46.03;100617.97;108051;1286;21977;-63
2023/04/17 09:59:29;;;;;;;;;;;;;;;20.85;45.90;100619.86;108163;1286;23789;-63
2023/04/17 10:01:55;;;;;;;;;;;;;;;20.98;46.01;100623.96;108143;1286;21970;-63
2023/04/17 10:04:21;;;;;;;;;;;;;;;21.14;45.98;100623.89;108045;1286;22137;-63
2023/04/17 10:06:47;;;;;;;;;;;;;;;21.30;46.22;100624.10;108070;1286;21967;-64
2023/04/17 10:09:13;;;;;;;;;;;;;;;21.48;45.90;100621.18;108115;1286;24208;-64
2023/04/17 10:11:45;;;;;;;;;;;;;;;21.74;46.52;100624.11;108294;1286;21976;-63
2023/04/17 10:14:11;;;;;;;;;;;;;;;22.10;46.44;100621.73;108128;1286;24400;-64
2023/04/17 10:16:37;;;;;;;;;;;;;;;22.40;46.08;100622.21;108086;1283;22434;-64
2023/04/17 10:19:21;;;;;;;;;;;;;;;22.60;45.83;100628.42;108077;1286;21962;-63
2023/04/17 10:21:49;;;;;;;;;;;;;;;22.75;45.46;100631.98;108359;1286;23723;-65
2023/04/17 10:24:25;;;;;;;;;;;;;;;22.82;45.26;100633.55;108071;1286;22004;-66
2023/04/17 10:26:50;;;;;;;;;;;;;;;22.89;45.06;100634.00;108114;1279;22020;-65
2023/04/17 10:29:17;;;;;;;;;;;;;;;22.98;44.80;100631.48;108269;1286;21972;-65
2023/04/17 10:32:02;;;;;;;;;;;;;;;23.09;45.05;100637.46;108154;1286;23064;-64
2023/04/17 10:34:34;;;;;;;;;;;;;;;23.25;44.85;100640.45;108199;1285;21976;-64
2023/04/17 10:37:00;;;;;;;;;;;;;;;23.44;44.70;100641.61;108250;1286;21971;-64
2023/04/17 10:39:25;;;;;;;;;;;;;;;23.63;44.70;100645.48;108098;1286;21960;-64
2023/04/17 10:42:00;;;;;;;;;;;;;;;23.81;44.35;100642.16;107943;1286;148728;-64
2023/04/17 10:44:26;;;;;;;;;;;;;;;23.93;44.42;100646.08;108061;1286;21990;-64
2023/04/17 10:46:51;;;;;;;;;;;;;;;24.07;44.31;100641.25;108084;1286;22141;-65
2023/04/17 10:49:19;;;;;;;;;;;;;;;24.21;44.31;100642.52;108070;1286;21976;-64
2023/04/17 10:51:45;;;;;;;;;;;;;;;24.32;44.00;100643.97;108077;1286;21974;-64
2023/04/17 10:54:14;;;;;;;;;;;;;;;24.40;44.14;100641.62;108072;1286;23672;-64
2023/04/17 10:56:41;;;;;;;;;;;;;;;24.51;43.95;100639.66;107339;1285;1002345;-64
2023/04/17 10:59:06;;;;;;;;;;;;;;;24.56;43.71;100642.01;108125;1286;23698;-66
2023/04/17 11:01:39;;;;;;;;;;;;;;;24.58;43.41;100637.97;108093;1286;22010;-64
2023/04/17 11:04:05;;;;;;;;;;;;;;;24.57;42.82;100639.45;108176;1286;21969;-64
2023/04/17 11:06:31;;;;;;;;;;;;;;;24.60;43.05;100642.60;108045;1286;21977;-64
2023/04/17 11:08:57;;;;;;;;;;;;;;;24.60;42.51;100642.82;108123;1286;23731;-64
2023/04/17 11:11:23;;;;;;;;;;;;;;;24.57;42.05;100641.05;108062;1286;22725;-64
2023/04/17 11:13:48;;;;;;;;;;;;;;;24.54;42.27;100639.44;108099;1286;21985;-64
2023/04/17 11:16:14;;;;;;;;;;;;;;;24.53;41.95;100638.27;108099;1286;21974;-64
2023/04/17 11:18:43;;;;;;;;;;;;;;;24.55;42.08;100639.96;108179;1286;22041;-65
2023/04/17 11:21:09;;;;;;;;;;;;;;;24.58;42.11;100641.70;108103;1286;21976;-65
2023/04/17 11:23:36;;;;;;;;;;;;;;;24.68;42.11;100638.19;108043;1286;22030;-64
2023/04/17 11:26:01;;;;;;;;;;;;;;;24.73;41.65;100640.89;108123;1286;23638;-64
2023/04/17 11:28:27;;;;;;;;;;;;;;;24.74;41.72;100638.29;108238;1286;21973;-63
2023/04/17 11:30:52;;;;;;;;;;;;;;;24.75;41.33;100633.05;108231;1286;21970;-64
2023/04/17 11:33:18;;;;;;;;;;;;;;;24.77;41.20;100631.86;108213;1286;21971;-66
2023/04/17 11:35:44;;;;;;;;;;;;;;;24.79;41.52;100630.81;108092;1286;21978;-64
2023/04/17 11:38:12;;;;;;;;;;;;;;;24.88;41.70;100625.38;108230;1285;24353;-64
2023/04/17 11:40:43;;;;;;;;;;;;;;;25.07;41.15;100621.02;108236;1283;21975;-65
2023/04/17 11:43:09;;;;;;;;;;;;;;;25.24;40.82;100612.15;108278;1282;23695;-64
2023/04/17 11:45:34;;;;;;;;;;;;;;;25.39;40.50;100611.24;108039;1286;21974;-62
2023/04/17 11:48:01;;;;;;;;;;;;;;;25.57;40.27;100610.72;108020;1285;23594;-62
2023/04/17 11:50:28;;;;;;;;;;;;;;;25.88;40.43;100603.98;108120;1286;22009;-65
2023/04/17 11:52:57;;;;;;;;;;;;;;;26.20;40.62;100592.29;108166;1286;21974;-64
2023/04/17 11:55:22;;;;;;;;;;;;;;;26.43;40.32;100589.88;108103;1285;21979;-64
2023/04/17 11:57:50;;;;;;;;;;;;;;;26.64;40.66;100587.98;108135;1286;21929;-65
2023/04/17 12:00:16;;;;;;;;;;;;;;;26.89;40.73;100584.43;108128;1286;23790;-65
2023/04/17 12:02:42;;;;;;;;;;;;;;;27.09;39.94;100583.22;108231;1286;22006;-64
2023/04/17 12:05:14;;;;;;;;;;;;;;;27.16;39.68;100584.48;108127;1285;22027;-65
2023/04/17 12:07:40;;;;;;;;;;;;;;;27.17;39.76;100587.09;108169;1286;21961;-65
2023/04/17 12:10:06;;;;;;;;;;;;;;;27.19;39.63;100593.98;108095;1286;21999;-65
2023/04/17 12:12:33;;;;;;;;;;;;;;;27.20;39.72;100596.06;108179;1286;23776;-65
2023/04/17 12:14:59;;;;;;;;;;;;;;;27.21;39.70;100591.34;108115;1286;21969;-65
2023/04/17 12:17:25;;;;;;;;;;;;;;;27.30;39.19;100584.13;108102;1286;21977;-64
2023/04/17 12:19:52;;;;;;;;;;;;;;;27.32;38.46;100577.82;108270;1286;21973;-65
2023/04/17 12:22:17;;;;;;;;;;;;;;;27.26;38.48;100569.10;108072;1286;21971;-64